sensor_id;sensor_type;location;lat;lon;timestamp;P1;durP1;ratioP1;P2;durP2;ratioP2
65545;SDS011;52177;55.968;37.498;2022-12-29T00:00:23;4.60;;;1.70;;
65545;SDS011;52177;55.968;37.498;2022-12-29T00:00:54;3.55;;;1.40;;
65545;SDS011;52177;55.968;37.498;2022-12-29T00:01:24;2.85;;;1.20;;
65545;SDS011;52177;55.968;37.498;2022-12-29T00:01:54;3.42;;;1.40;;
65545;SDS011;52177;55.968;37.498;2022-12-29T00:02:25;4.93;;;1.60;;
65545;SDS011;52177;55.968;37.498;2022-12-29T00:02:56;6.15;;;1.65;;
65545;SDS011;52177;55.968;37.498;2022-12-29T00:03:26;2.47;;;1.20;;
65545;SDS011;52177;55.968;37.498;2022-12-29T00:03:56;3.53;;;1.58;;
65545;SDS011;52177;55.968;37.498;2022-12-29T00:04:27;3.88;;;1.40;;
65545;SDS011;52177;55.968;37.498;2022-12-29T00:04:57;3.22;;;1.42;;
65545;SDS011;52177;55.968;37.498;2022-12-29T00:05:28;4.63;;;1.50;;
65545;SDS011;52177;55.968;37.498;2022-12-29T00:05:58;3.70;;;1.60;;
65545;SDS011;52177;55.968;37.498;2022-12-29T00:06:29;4.28;;;1.58;;
65545;SDS011;52177;55.968;37.498;2022-12-29T00:06:59;3.55;;;1.50;;
65545;SDS011;52177;55.968;37.498;2022-12-29T00:07:30;5.78;;;1.40;;
65545;SDS011;52177;55.968;37.498;2022-12-29T00:08:00;5.35;;;1.42;;
65545;SDS011;52177;55.968;37.498;2022-12-29T00:08:31;2.85;;;1.35;;
65545;SDS011;52177;55.968;37.498;2022-12-29T00:09:10;2.13;;;1.35;;
65545;SDS011;52177;55.968;37.498;2022-12-29T00:09:42;2.90;;;1.63;;
65545;SDS011;52177;55.968;37.498;2022-12-29T00:10:12;4.68;;;1.30;;
65545;SDS011;52177;55.968;37.498;2022-12-29T00:10:42;3.85;;;1.20;;
65545;SDS011;52177;55.968;37.498;2022-12-29T00:11:15;2.75;;;1.45;;
65545;SDS011;52177;55.968;37.498;2022-12-29T00:11:49;3.25;;;1.83;;
65545;SDS011;52177;55.968;37.498;2022-12-29T00:12:20;2.78;;;1.40;;
65545;SDS011;52177;55.968;37.498;2022-12-29T00:12:50;3.15;;;1.35;;
65545;SDS011;52177;55.968;37.498;2022-12-29T00:13:39;4.80;;;1.65;;
65545;SDS011;52177;55.968;37.498;2022-12-29T00:14:28;3.65;;;1.52;;
65545;SDS011;52177;55.968;37.498;2022-12-29T00:15:17;3.78;;;1.73;;
65545;SDS011;52177;55.968;37.498;2022-12-29T00:16:06;4.55;;;1.45;;
65545;SDS011;52177;55.968;37.498;2022-12-29T00:16:37;3.33;;;1.30;;
65545;SDS011;52177;55.968;37.498;2022-12-29T00:17:10;2.45;;;1.40;;
65545;SDS011;52177;55.968;37.498;2022-12-29T00:17:40;2.05;;;1.48;;
65545;SDS011;52177;55.968;37.498;2022-12-29T00:18:10;3.05;;;1.50;;
65545;SDS011;52177;55.968;37.498;2022-12-29T00:18:41;3.67;;;1.50;;
65545;SDS011;52177;55.968;37.498;2022-12-29T00:19:11;5.75;;;1.52;;
65545;SDS011;52177;55.968;37.498;2022-12-29T00:20:00;3.78;;;1.35;;
65545;SDS011;52177;55.968;37.498;2022-12-29T00:20:50;3.15;;;1.40;;
65545;SDS011;52177;55.968;37.498;2022-12-29T00:21:43;2.85;;;1.50;;
65545;SDS011;52177;55.968;37.498;2022-12-29T00:22:32;2.95;;;1.50;;
65545;SDS011;52177;55.968;37.498;2022-12-29T00:23:21;6.28;;;2.03;;
65545;SDS011;52177;55.968;37.498;2022-12-29T00:24:56;3.95;;;1.52;;
65545;SDS011;52177;55.968;37.498;2022-12-29T00:25:45;3.55;;;1.45;;
65545;SDS011;52177;55.968;37.498;2022-12-29T00:26:34;3.45;;;1.48;;
65545;SDS011;52177;55.968;37.498;2022-12-29T00:27:23;3.05;;;1.33;;
65545;SDS011;52177;55.968;37.498;2022-12-29T00:28:12;2.30;;;1.30;;
65545;SDS011;52177;55.968;37.498;2022-12-29T00:29:01;5.95;;;1.63;;
65545;SDS011;52177;55.968;37.498;2022-12-29T00:29:50;4.32;;;1.80;;
65545;SDS011;52177;55.968;37.498;2022-12-29T00:30:39;3.65;;;1.40;;
65545;SDS011;52177;55.968;37.498;2022-12-29T00:31:28;3.33;;;1.70;;
65545;SDS011;52177;55.968;37.498;2022-12-29T00:32:17;1.55;;;1.25;;
65545;SDS011;52177;55.968;37.498;2022-12-29T00:33:10;3.72;;;1.30;;
65545;SDS011;52177;55.968;37.498;2022-12-29T00:34:00;4.32;;;1.40;;
65545;SDS011;52177;55.968;37.498;2022-12-29T00:34:48;3.78;;;1.10;;
65545;SDS011;52177;55.968;37.498;2022-12-29T00:35:46;6.15;;;1.55;;
65545;SDS011;52177;55.968;37.498;2022-12-29T00:36:27;3.00;;;1.25;;
65545;SDS011;52177;55.968;37.498;2022-12-29T00:37:00;4.78;;;1.67;;
65545;SDS011;52177;55.968;37.498;2022-12-29T00:37:30;5.43;;;1.85;;
65545;SDS011;52177;55.968;37.498;2022-12-29T00:38:19;4.25;;;1.70;;
65545;SDS011;52177;55.968;37.498;2022-12-29T00:39:10;2.63;;;1.27;;
65545;SDS011;52177;55.968;37.498;2022-12-29T00:40:02;1.17;;;1.08;;
65545;SDS011;52177;55.968;37.498;2022-12-29T00:40:51;3.28;;;1.10;;
65545;SDS011;52177;55.968;37.498;2022-12-29T00:41:40;3.63;;;1.35;;
65545;SDS011;52177;55.968;37.498;2022-12-29T00:42:29;2.33;;;1.13;;
65545;SDS011;52177;55.968;37.498;2022-12-29T00:43:18;2.72;;;1.20;;
65545;SDS011;52177;55.968;37.498;2022-12-29T00:44:07;2.22;;;1.15;;
65545;SDS011;52177;55.968;37.498;2022-12-29T00:44:40;5.18;;;1.45;;
65545;SDS011;52177;55.968;37.498;2022-12-29T00:45:10;4.47;;;1.88;;
65545;SDS011;52177;55.968;37.498;2022-12-29T00:45:41;3.85;;;1.50;;
65545;SDS011;52177;55.968;37.498;2022-12-29T00:46:11;2.88;;;1.20;;
65545;SDS011;52177;55.968;37.498;2022-12-29T00:46:42;5.13;;;1.20;;
65545;SDS011;52177;55.968;37.498;2022-12-29T00:47:12;4.25;;;1.40;;
65545;SDS011;52177;55.968;37.498;2022-12-29T00:47:43;2.58;;;1.33;;
65545;SDS011;52177;55.968;37.498;2022-12-29T00:48:13;3.42;;;1.40;;
65545;SDS011;52177;55.968;37.498;2022-12-29T00:48:43;3.00;;;1.38;;
65545;SDS011;52177;55.968;37.498;2022-12-29T00:49:32;2.38;;;1.20;;
65545;SDS011;52177;55.968;37.498;2022-12-29T00:50:03;3.08;;;1.20;;
65545;SDS011;52177;55.968;37.498;2022-12-29T00:50:34;3.58;;;1.23;;
65545;SDS011;52177;55.968;37.498;2022-12-29T00:51:04;2.53;;;1.20;;
65545;SDS011;52177;55.968;37.498;2022-12-29T00:51:35;4.25;;;1.40;;
65545;SDS011;52177;55.968;37.498;2022-12-29T00:52:06;3.95;;;1.35;;
65545;SDS011;52177;55.968;37.498;2022-12-29T00:52:39;4.85;;;1.45;;
65545;SDS011;52177;55.968;37.498;2022-12-29T00:53:09;3.83;;;1.42;;
65545;SDS011;52177;55.968;37.498;2022-12-29T00:53:39;3.25;;;1.23;;
65545;SDS011;52177;55.968;37.498;2022-12-29T00:54:10;2.90;;;1.50;;
65545;SDS011;52177;55.968;37.498;2022-12-29T00:54:41;3.30;;;1.40;;
65545;SDS011;52177;55.968;37.498;2022-12-29T00:55:14;4.53;;;1.42;;
65545;SDS011;52177;55.968;37.498;2022-12-29T00:55:45;4.40;;;1.25;;
65545;SDS011;52177;55.968;37.498;2022-12-29T00:56:15;4.25;;;1.60;;
65545;SDS011;52177;55.968;37.498;2022-12-29T00:56:46;3.80;;;1.40;;
65545;SDS011;52177;55.968;37.498;2022-12-29T00:57:18;3.67;;;1.48;;
65545;SDS011;52177;55.968;37.498;2022-12-29T00:57:48;4.50;;;1.25;;
65545;SDS011;52177;55.968;37.498;2022-12-29T00:58:19;2.63;;;1.30;;
65545;SDS011;52177;55.968;37.498;2022-12-29T00:58:49;4.13;;;1.30;;
65545;SDS011;52177;55.968;37.498;2022-12-29T00:59:20;5.57;;;1.80;;
65545;SDS011;52177;55.968;37.498;2022-12-29T00:59:50;5.57;;;1.77;;
65545;SDS011;52177;55.968;37.498;2022-12-29T01:00:21;5.70;;;1.50;;
65545;SDS011;52177;55.968;37.498;2022-12-29T01:00:51;5.50;;;1.38;;
65545;SDS011;52177;55.968;37.498;2022-12-29T01:01:21;4.97;;;1.67;;
65545;SDS011;52177;55.968;37.498;2022-12-29T01:01:52;4.00;;;1.50;;
65545;SDS011;52177;55.968;37.498;2022-12-29T01:02:23;2.25;;;1.27;;
65545;SDS011;52177;55.968;37.498;2022-12-29T01:02:54;5.07;;;1.23;;
65545;SDS011;52177;55.968;37.498;2022-12-29T01:03:24;2.65;;;1.38;;
65545;SDS011;52177;55.968;37.498;2022-12-29T01:03:54;5.30;;;1.48;;
65545;SDS011;52177;55.968;37.498;2022-12-29T01:04:25;3.03;;;1.30;;
65545;SDS011;52177;55.968;37.498;2022-12-29T01:04:56;4.15;;;1.40;;
65545;SDS011;52177;55.968;37.498;2022-12-29T01:05:26;4.70;;;1.92;;
65545;SDS011;52177;55.968;37.498;2022-12-29T01:05:56;4.18;;;1.70;;
65545;SDS011;52177;55.968;37.498;2022-12-29T01:06:31;4.80;;;1.73;;
65545;SDS011;52177;55.968;37.498;2022-12-29T01:07:02;3.63;;;1.15;;
65545;SDS011;52177;55.968;37.498;2022-12-29T01:07:32;3.38;;;1.30;;
65545;SDS011;52177;55.968;37.498;2022-12-29T01:08:03;5.85;;;1.23;;
65545;SDS011;52177;55.968;37.498;2022-12-29T01:08:34;4.65;;;1.60;;
65545;SDS011;52177;55.968;37.498;2022-12-29T01:09:05;4.13;;;1.35;;
65545;SDS011;52177;55.968;37.498;2022-12-29T01:09:55;3.10;;;1.20;;
65545;SDS011;52177;55.968;37.498;2022-12-29T01:10:40;6.28;;;1.40;;
65545;SDS011;52177;55.968;37.498;2022-12-29T01:11:11;4.03;;;1.33;;
65545;SDS011;52177;55.968;37.498;2022-12-29T01:11:42;3.72;;;1.20;;
65545;SDS011;52177;55.968;37.498;2022-12-29T01:12:13;3.80;;;1.33;;
65545;SDS011;52177;55.968;37.498;2022-12-29T01:12:43;3.25;;;1.27;;
65545;SDS011;52177;55.968;37.498;2022-12-29T01:13:15;3.97;;;1.80;;
65545;SDS011;52177;55.968;37.498;2022-12-29T01:13:45;3.17;;;1.80;;
65545;SDS011;52177;55.968;37.498;2022-12-29T01:14:15;5.40;;;1.60;;
65545;SDS011;52177;55.968;37.498;2022-12-29T01:14:46;3.13;;;1.38;;
65545;SDS011;52177;55.968;37.498;2022-12-29T01:15:17;5.53;;;1.70;;
65545;SDS011;52177;55.968;37.498;2022-12-29T01:15:50;2.30;;;1.20;;
65545;SDS011;52177;55.968;37.498;2022-12-29T01:16:21;3.20;;;1.38;;
65545;SDS011;52177;55.968;37.498;2022-12-29T01:16:52;3.78;;;1.50;;
65545;SDS011;52177;55.968;37.498;2022-12-29T01:17:22;5.90;;;1.77;;
65545;SDS011;52177;55.968;37.498;2022-12-29T01:17:53;4.63;;;1.40;;
65545;SDS011;52177;55.968;37.498;2022-12-29T01:18:23;6.70;;;1.92;;
65545;SDS011;52177;55.968;37.498;2022-12-29T01:18:54;4.03;;;1.52;;
65545;SDS011;52177;55.968;37.498;2022-12-29T01:19:25;2.75;;;1.27;;
65545;SDS011;52177;55.968;37.498;2022-12-29T01:19:56;6.13;;;1.50;;
65545;SDS011;52177;55.968;37.498;2022-12-29T01:20:26;2.90;;;1.70;;
65545;SDS011;52177;55.968;37.498;2022-12-29T01:21:02;4.47;;;1.48;;
65545;SDS011;52177;55.968;37.498;2022-12-29T01:21:34;5.05;;;1.73;;
65545;SDS011;52177;55.968;37.498;2022-12-29T01:22:04;7.28;;;1.70;;
65545;SDS011;52177;55.968;37.498;2022-12-29T01:22:34;6.35;;;2.00;;
65545;SDS011;52177;55.968;37.498;2022-12-29T01:23:05;5.75;;;1.38;;
65545;SDS011;52177;55.968;37.498;2022-12-29T01:23:35;3.25;;;1.48;;
65545;SDS011;52177;55.968;37.498;2022-12-29T01:24:06;5.65;;;1.92;;
65545;SDS011;52177;55.968;37.498;2022-12-29T01:24:36;4.55;;;1.50;;
65545;SDS011;52177;55.968;37.498;2022-12-29T01:25:07;4.68;;;1.60;;
65545;SDS011;52177;55.968;37.498;2022-12-29T01:25:37;3.13;;;1.45;;
65545;SDS011;52177;55.968;37.498;2022-12-29T01:26:08;3.83;;;1.33;;
65545;SDS011;52177;55.968;37.498;2022-12-29T01:26:39;6.43;;;2.33;;
65545;SDS011;52177;55.968;37.498;2022-12-29T01:27:10;3.25;;;1.38;;
65545;SDS011;52177;55.968;37.498;2022-12-29T01:27:40;6.07;;;1.75;;
65545;SDS011;52177;55.968;37.498;2022-12-29T01:28:10;5.57;;;1.20;;
65545;SDS011;52177;55.968;37.498;2022-12-29T01:28:41;3.38;;;1.40;;
65545;SDS011;52177;55.968;37.498;2022-12-29T01:29:12;4.60;;;1.40;;
65545;SDS011;52177;55.968;37.498;2022-12-29T01:29:43;3.03;;;1.20;;
65545;SDS011;52177;55.968;37.498;2022-12-29T01:30:13;6.10;;;1.67;;
65545;SDS011;52177;55.968;37.498;2022-12-29T01:30:43;5.15;;;1.35;;
65545;SDS011;52177;55.968;37.498;2022-12-29T01:31:14;3.75;;;1.70;;
65545;SDS011;52177;55.968;37.498;2022-12-29T01:31:45;5.55;;;2.00;;
65545;SDS011;52177;55.968;37.498;2022-12-29T01:32:16;3.17;;;1.23;;
65545;SDS011;52177;55.968;37.498;2022-12-29T01:32:46;4.32;;;1.38;;
65545;SDS011;52177;55.968;37.498;2022-12-29T01:33:17;8.75;;;2.00;;
65545;SDS011;52177;55.968;37.498;2022-12-29T01:33:47;5.95;;;1.48;;
65545;SDS011;52177;55.968;37.498;2022-12-29T01:34:17;4.13;;;1.42;;
65545;SDS011;52177;55.968;37.498;2022-12-29T01:34:48;5.07;;;1.70;;
65545;SDS011;52177;55.968;37.498;2022-12-29T01:35:18;3.80;;;1.73;;
65545;SDS011;52177;55.968;37.498;2022-12-29T01:35:49;3.80;;;1.52;;
65545;SDS011;52177;55.968;37.498;2022-12-29T01:36:19;2.88;;;1.10;;
65545;SDS011;52177;55.968;37.498;2022-12-29T01:36:50;6.05;;;1.50;;
65545;SDS011;52177;55.968;37.498;2022-12-29T01:37:20;4.55;;;1.33;;
65545;SDS011;52177;55.968;37.498;2022-12-29T01:37:51;3.90;;;1.33;;
65545;SDS011;52177;55.968;37.498;2022-12-29T01:38:21;3.80;;;1.70;;
65545;SDS011;52177;55.968;37.498;2022-12-29T01:38:52;4.95;;;1.60;;
65545;SDS011;52177;55.968;37.498;2022-12-29T01:39:22;2.70;;;1.30;;
65545;SDS011;52177;55.968;37.498;2022-12-29T01:39:52;4.80;;;1.83;;
65545;SDS011;52177;55.968;37.498;2022-12-29T01:40:23;4.82;;;1.52;;
65545;SDS011;52177;55.968;37.498;2022-12-29T01:40:53;4.63;;;1.50;;
65545;SDS011;52177;55.968;37.498;2022-12-29T01:41:23;5.10;;;1.23;;
65545;SDS011;52177;55.968;37.498;2022-12-29T01:41:54;3.30;;;1.23;;
65545;SDS011;52177;55.968;37.498;2022-12-29T01:42:24;4.13;;;1.33;;
65545;SDS011;52177;55.968;37.498;2022-12-29T01:42:58;2.97;;;1.30;;
65545;SDS011;52177;55.968;37.498;2022-12-29T01:45:22;5.20;;;1.98;;
65545;SDS011;52177;55.968;37.498;2022-12-29T01:45:52;3.65;;;1.40;;
65545;SDS011;52177;55.968;37.498;2022-12-29T01:46:37;5.63;;;1.42;;
65545;SDS011;52177;55.968;37.498;2022-12-29T01:47:10;4.78;;;1.50;;
65545;SDS011;52177;55.968;37.498;2022-12-29T01:47:44;4.80;;;1.40;;
65545;SDS011;52177;55.968;37.498;2022-12-29T01:48:18;4.70;;;1.50;;
65545;SDS011;52177;55.968;37.498;2022-12-29T01:48:50;4.55;;;1.77;;
65545;SDS011;52177;55.968;37.498;2022-12-29T01:49:24;4.55;;;1.30;;
65545;SDS011;52177;55.968;37.498;2022-12-29T01:49:59;4.10;;;2.08;;
65545;SDS011;52177;55.968;37.498;2022-12-29T01:50:36;3.05;;;1.30;;
65545;SDS011;52177;55.968;37.498;2022-12-29T01:51:11;3.55;;;1.20;;
65545;SDS011;52177;55.968;37.498;2022-12-29T01:51:45;6.45;;;1.40;;
65545;SDS011;52177;55.968;37.498;2022-12-29T01:52:17;5.43;;;1.83;;
65545;SDS011;52177;55.968;37.498;2022-12-29T01:52:50;3.38;;;1.50;;
65545;SDS011;52177;55.968;37.498;2022-12-29T01:53:29;5.13;;;1.85;;
65545;SDS011;52177;55.968;37.498;2022-12-29T01:54:03;7.28;;;1.60;;
65545;SDS011;52177;55.968;37.498;2022-12-29T01:54:43;5.05;;;1.50;;
65545;SDS011;52177;55.968;37.498;2022-12-29T01:55:18;4.22;;;1.48;;
65545;SDS011;52177;55.968;37.498;2022-12-29T01:55:50;6.78;;;1.73;;
65545;SDS011;52177;55.968;37.498;2022-12-29T01:56:24;6.15;;;1.48;;
65545;SDS011;52177;55.968;37.498;2022-12-29T01:56:59;4.25;;;1.48;;
65545;SDS011;52177;55.968;37.498;2022-12-29T01:57:34;6.63;;;1.27;;
65545;SDS011;52177;55.968;37.498;2022-12-29T01:58:08;5.38;;;1.48;;
65545;SDS011;52177;55.968;37.498;2022-12-29T01:58:41;4.03;;;1.60;;
65545;SDS011;52177;55.968;37.498;2022-12-29T01:59:15;4.05;;;1.60;;
65545;SDS011;52177;55.968;37.498;2022-12-29T02:00:23;4.68;;;1.40;;
65545;SDS011;52177;55.968;37.498;2022-12-29T02:00:46;5.13;;;1.60;;
65545;SDS011;52177;55.968;37.498;2022-12-29T02:01:18;6.32;;;1.77;;
65545;SDS011;52177;55.968;37.498;2022-12-29T02:01:50;6.97;;;1.48;;
65545;SDS011;52177;55.968;37.498;2022-12-29T02:02:21;5.18;;;1.63;;
65545;SDS011;52177;55.968;37.498;2022-12-29T02:02:52;5.65;;;1.83;;
65545;SDS011;52177;55.968;37.498;2022-12-29T02:03:23;7.10;;;1.77;;
65545;SDS011;52177;55.968;37.498;2022-12-29T02:03:56;5.07;;;1.58;;
65545;SDS011;52177;55.968;37.498;2022-12-29T02:04:27;3.42;;;1.50;;
65545;SDS011;52177;55.968;37.498;2022-12-29T02:05:03;6.57;;;2.00;;
65545;SDS011;52177;55.968;37.498;2022-12-29T02:05:53;3.85;;;1.30;;
65545;SDS011;52177;55.968;37.498;2022-12-29T02:06:33;6.68;;;1.75;;
65545;SDS011;52177;55.968;37.498;2022-12-29T02:07:11;6.28;;;1.58;;
65545;SDS011;52177;55.968;37.498;2022-12-29T02:07:47;3.53;;;1.80;;
65545;SDS011;52177;55.968;37.498;2022-12-29T02:08:20;5.15;;;1.58;;
65545;SDS011;52177;55.968;37.498;2022-12-29T02:08:53;4.03;;;1.55;;
65545;SDS011;52177;55.968;37.498;2022-12-29T02:09:25;7.93;;;2.03;;
65545;SDS011;52177;55.968;37.498;2022-12-29T02:09:56;7.40;;;2.33;;
65545;SDS011;52177;55.968;37.498;2022-12-29T02:10:28;4.93;;;1.60;;
65545;SDS011;52177;55.968;37.498;2022-12-29T02:11:01;5.50;;;1.85;;
65545;SDS011;52177;55.968;37.498;2022-12-29T02:11:32;7.25;;;1.70;;
65545;SDS011;52177;55.968;37.498;2022-12-29T02:12:06;3.70;;;1.67;;
65545;SDS011;52177;55.968;37.498;2022-12-29T02:12:37;3.22;;;1.92;;
65545;SDS011;52177;55.968;37.498;2022-12-29T02:13:07;5.13;;;1.88;;
65545;SDS011;52177;55.968;37.498;2022-12-29T02:13:38;10.30;;;2.15;;
65545;SDS011;52177;55.968;37.498;2022-12-29T02:14:11;6.28;;;1.83;;
65545;SDS011;52177;55.968;37.498;2022-12-29T02:14:44;9.75;;;2.35;;
65545;SDS011;52177;55.968;37.498;2022-12-29T02:15:14;7.28;;;2.05;;
65545;SDS011;52177;55.968;37.498;2022-12-29T02:23:14;4.70;;;1.98;;
65545;SDS011;52177;55.968;37.498;2022-12-29T02:25:48;8.90;;;1.80;;
65545;SDS011;52177;55.968;37.498;2022-12-29T02:27:48;4.55;;;1.63;;
65545;SDS011;52177;55.968;37.498;2022-12-29T02:35:44;6.30;;;1.70;;
65545;SDS011;52177;55.968;37.498;2022-12-29T02:37:22;7.45;;;1.88;;
65545;SDS011;52177;55.968;37.498;2022-12-29T02:38:56;3.97;;;1.40;;
65545;SDS011;52177;55.968;37.498;2022-12-29T02:39:43;4.72;;;2.08;;
65545;SDS011;52177;55.968;37.498;2022-12-29T02:40:24;3.92;;;1.40;;
65545;SDS011;52177;55.968;37.498;2022-12-29T02:41:07;3.40;;;1.17;;
65545;SDS011;52177;55.968;37.498;2022-12-29T02:43:04;3.15;;;1.60;;
65545;SDS011;52177;55.968;37.498;2022-12-29T02:45:25;3.50;;;1.58;;
65545;SDS011;52177;55.968;37.498;2022-12-29T02:46:13;4.53;;;1.52;;
65545;SDS011;52177;55.968;37.498;2022-12-29T02:46:56;2.35;;;1.10;;
65545;SDS011;52177;55.968;37.498;2022-12-29T02:47:36;5.03;;;1.60;;
65545;SDS011;52177;55.968;37.498;2022-12-29T02:48:25;5.55;;;1.42;;
65545;SDS011;52177;55.968;37.498;2022-12-29T02:49:13;5.90;;;1.50;;
65545;SDS011;52177;55.968;37.498;2022-12-29T02:50:02;4.68;;;2.17;;
65545;SDS011;52177;55.968;37.498;2022-12-29T02:50:42;6.53;;;2.00;;
65545;SDS011;52177;55.968;37.498;2022-12-29T02:51:23;6.15;;;1.85;;
65545;SDS011;52177;55.968;37.498;2022-12-29T02:52:05;6.30;;;1.60;;
65545;SDS011;52177;55.968;37.498;2022-12-29T02:52:43;4.55;;;1.90;;
65545;SDS011;52177;55.968;37.498;2022-12-29T02:53:20;4.22;;;1.55;;
65545;SDS011;52177;55.968;37.498;2022-12-29T02:54:13;5.38;;;1.83;;
65545;SDS011;52177;55.968;37.498;2022-12-29T02:55:06;6.25;;;1.60;;
65545;SDS011;52177;55.968;37.498;2022-12-29T02:55:37;7.60;;;1.83;;
65545;SDS011;52177;55.968;37.498;2022-12-29T02:56:07;4.03;;;1.83;;
65545;SDS011;52177;55.968;37.498;2022-12-29T02:56:37;7.80;;;1.85;;
65545;SDS011;52177;55.968;37.498;2022-12-29T02:57:11;4.85;;;1.85;;
65545;SDS011;52177;55.968;37.498;2022-12-29T02:57:44;5.53;;;1.83;;
65545;SDS011;52177;55.968;37.498;2022-12-29T02:58:19;7.53;;;2.20;;
65545;SDS011;52177;55.968;37.498;2022-12-29T02:58:51;3.80;;;1.60;;
65545;SDS011;52177;55.968;37.498;2022-12-29T02:59:21;5.88;;;1.65;;
65545;SDS011;52177;55.968;37.498;2022-12-29T03:00:08;10.15;;;2.33;;
65545;SDS011;52177;55.968;37.498;2022-12-29T03:00:47;6.45;;;1.88;;
65545;SDS011;52177;55.968;37.498;2022-12-29T03:03:37;3.63;;;1.90;;
65545;SDS011;52177;55.968;37.498;2022-12-29T03:05:54;4.60;;;1.98;;
65545;SDS011;52177;55.968;37.498;2022-12-29T03:06:54;5.68;;;2.17;;
65545;SDS011;52177;55.968;37.498;2022-12-29T03:07:43;6.30;;;1.80;;
65545;SDS011;52177;55.968;37.498;2022-12-29T03:11:38;4.72;;;1.73;;
65545;SDS011;52177;55.968;37.498;2022-12-29T03:14:08;3.88;;;1.92;;
65545;SDS011;52177;55.968;37.498;2022-12-29T03:15:13;4.10;;;1.60;;
65545;SDS011;52177;55.968;37.498;2022-12-29T03:16:49;5.30;;;1.85;;
65545;SDS011;52177;55.968;37.498;2022-12-29T03:17:25;5.25;;;1.60;;
65545;SDS011;52177;55.968;37.498;2022-12-29T03:18:05;3.88;;;1.80;;
65545;SDS011;52177;55.968;37.498;2022-12-29T03:18:48;5.40;;;1.70;;
65545;SDS011;52177;55.968;37.498;2022-12-29T03:19:21;4.32;;;1.80;;
65545;SDS011;52177;55.968;37.498;2022-12-29T03:19:52;3.13;;;1.50;;
65545;SDS011;52177;55.968;37.498;2022-12-29T03:20:32;3.80;;;2.00;;
65545;SDS011;52177;55.968;37.498;2022-12-29T03:21:13;6.32;;;2.13;;
65545;SDS011;52177;55.968;37.498;2022-12-29T03:22:17;4.25;;;1.65;;
65545;SDS011;52177;55.968;37.498;2022-12-29T03:22:58;5.30;;;1.95;;
65545;SDS011;52177;55.968;37.498;2022-12-29T03:23:31;7.00;;;2.22;;
65545;SDS011;52177;55.968;37.498;2022-12-29T03:24:05;5.13;;;2.13;;
65545;SDS011;52177;55.968;37.498;2022-12-29T03:24:38;4.60;;;2.15;;
65545;SDS011;52177;55.968;37.498;2022-12-29T03:25:15;5.57;;;2.08;;
65545;SDS011;52177;55.968;37.498;2022-12-29T03:25:51;5.65;;;2.00;;
65545;SDS011;52177;55.968;37.498;2022-12-29T03:26:26;3.88;;;1.90;;
65545;SDS011;52177;55.968;37.498;2022-12-29T03:26:58;4.18;;;2.03;;
65545;SDS011;52177;55.968;37.498;2022-12-29T03:27:35;4.85;;;2.10;;
65545;SDS011;52177;55.968;37.498;2022-12-29T03:28:11;5.30;;;2.05;;
65545;SDS011;52177;55.968;37.498;2022-12-29T03:28:47;7.97;;;1.70;;
65545;SDS011;52177;55.968;37.498;2022-12-29T03:29:21;8.38;;;2.67;;
65545;SDS011;52177;55.968;37.498;2022-12-29T03:29:54;7.00;;;2.20;;
65545;SDS011;52177;55.968;37.498;2022-12-29T03:30:28;5.32;;;2.28;;
65545;SDS011;52177;55.968;37.498;2022-12-29T03:31:01;4.43;;;2.60;;
65545;SDS011;52177;55.968;37.498;2022-12-29T03:31:35;7.28;;;2.25;;
65545;SDS011;52177;55.968;37.498;2022-12-29T03:32:07;5.95;;;2.17;;
65545;SDS011;52177;55.968;37.498;2022-12-29T03:33:18;7.75;;;2.42;;
65545;SDS011;52177;55.968;37.498;2022-12-29T03:33:52;7.88;;;2.25;;
65545;SDS011;52177;55.968;37.498;2022-12-29T03:34:25;5.85;;;2.50;;
65545;SDS011;52177;55.968;37.498;2022-12-29T03:34:57;7.13;;;2.60;;
65545;SDS011;52177;55.968;37.498;2022-12-29T03:35:30;4.68;;;2.00;;
65545;SDS011;52177;55.968;37.498;2022-12-29T03:36:03;6.55;;;2.00;;
65545;SDS011;52177;55.968;37.498;2022-12-29T03:36:42;7.80;;;2.40;;
65545;SDS011;52177;55.968;37.498;2022-12-29T03:37:20;4.35;;;2.42;;
65545;SDS011;52177;55.968;37.498;2022-12-29T03:38:59;6.38;;;2.30;;
65545;SDS011;52177;55.968;37.498;2022-12-29T03:39:35;5.80;;;2.45;;
65545;SDS011;52177;55.968;37.498;2022-12-29T03:40:06;4.57;;;2.20;;
65545;SDS011;52177;55.968;37.498;2022-12-29T03:40:38;8.05;;;2.38;;
65545;SDS011;52177;55.968;37.498;2022-12-29T03:41:14;4.75;;;2.15;;
65545;SDS011;52177;55.968;37.498;2022-12-29T03:41:54;8.15;;;2.53;;
65545;SDS011;52177;55.968;37.498;2022-12-29T03:42:32;7.38;;;3.00;;
65545;SDS011;52177;55.968;37.498;2022-12-29T03:43:05;7.25;;;2.88;;
65545;SDS011;52177;55.968;37.498;2022-12-29T03:43:35;7.18;;;2.38;;
65545;SDS011;52177;55.968;37.498;2022-12-29T03:44:06;8.95;;;2.95;;
65545;SDS011;52177;55.968;37.498;2022-12-29T03:44:41;6.70;;;2.50;;
65545;SDS011;52177;55.968;37.498;2022-12-29T03:45:13;6.25;;;2.30;;
65545;SDS011;52177;55.968;37.498;2022-12-29T03:45:44;5.50;;;2.55;;
65545;SDS011;52177;55.968;37.498;2022-12-29T03:46:14;6.72;;;2.65;;
65545;SDS011;52177;55.968;37.498;2022-12-29T03:46:45;6.38;;;2.60;;
65545;SDS011;52177;55.968;37.498;2022-12-29T03:47:15;5.38;;;2.20;;
65545;SDS011;52177;55.968;37.498;2022-12-29T03:47:46;6.00;;;2.38;;
65545;SDS011;52177;55.968;37.498;2022-12-29T03:48:16;5.43;;;2.70;;
65545;SDS011;52177;55.968;37.498;2022-12-29T03:48:47;4.88;;;2.00;;
65545;SDS011;52177;55.968;37.498;2022-12-29T03:49:17;5.22;;;2.50;;
65545;SDS011;52177;55.968;37.498;2022-12-29T03:49:47;4.78;;;2.40;;
65545;SDS011;52177;55.968;37.498;2022-12-29T03:50:19;7.05;;;2.50;;
65545;SDS011;52177;55.968;37.498;2022-12-29T03:50:50;5.78;;;2.83;;
65545;SDS011;52177;55.968;37.498;2022-12-29T03:51:20;7.95;;;2.60;;
65545;SDS011;52177;55.968;37.498;2022-12-29T03:51:50;7.18;;;2.33;;
65545;SDS011;52177;55.968;37.498;2022-12-29T03:52:21;5.05;;;2.28;;
65545;SDS011;52177;55.968;37.498;2022-12-29T03:52:51;8.52;;;2.53;;
65545;SDS011;52177;55.968;37.498;2022-12-29T03:53:21;7.00;;;2.53;;
65545;SDS011;52177;55.968;37.498;2022-12-29T03:53:52;8.48;;;3.00;;
65545;SDS011;52177;55.968;37.498;2022-12-29T03:54:23;5.18;;;2.35;;
65545;SDS011;52177;55.968;37.498;2022-12-29T03:54:54;6.70;;;2.65;;
65545;SDS011;52177;55.968;37.498;2022-12-29T03:55:24;7.97;;;2.10;;
65545;SDS011;52177;55.968;37.498;2022-12-29T03:55:54;6.68;;;2.97;;
65545;SDS011;52177;55.968;37.498;2022-12-29T03:56:25;4.45;;;2.35;;
65545;SDS011;52177;55.968;37.498;2022-12-29T03:56:55;6.03;;;2.53;;
65545;SDS011;52177;55.968;37.498;2022-12-29T03:57:26;5.60;;;2.10;;
65545;SDS011;52177;55.968;37.498;2022-12-29T03:57:56;5.90;;;2.30;;
65545;SDS011;52177;55.968;37.498;2022-12-29T03:58:26;9.43;;;3.25;;
65545;SDS011;52177;55.968;37.498;2022-12-29T03:58:57;5.25;;;2.10;;
65545;SDS011;52177;55.968;37.498;2022-12-29T03:59:27;8.60;;;2.13;;
65545;SDS011;52177;55.968;37.498;2022-12-29T03:59:57;6.03;;;2.35;;
65545;SDS011;52177;55.968;37.498;2022-12-29T04:00:28;7.28;;;2.72;;
65545;SDS011;52177;55.968;37.498;2022-12-29T04:00:58;5.22;;;2.33;;
65545;SDS011;52177;55.968;37.498;2022-12-29T04:01:29;11.80;;;2.15;;
65545;SDS011;52177;55.968;37.498;2022-12-29T04:01:59;8.93;;;2.58;;
65545;SDS011;52177;55.968;37.498;2022-12-29T04:02:29;7.78;;;2.42;;
65545;SDS011;52177;55.968;37.498;2022-12-29T04:03:00;7.70;;;2.40;;
65545;SDS011;52177;55.968;37.498;2022-12-29T04:03:30;9.38;;;2.58;;
65545;SDS011;52177;55.968;37.498;2022-12-29T04:04:00;4.55;;;2.20;;
65545;SDS011;52177;55.968;37.498;2022-12-29T04:04:31;5.22;;;2.47;;